createdAt,value
2023-03-01T00:00:18.534Z,88.45
2023-03-01T00:07:20.210Z,90.93
2023-03-01T00:14:21.841Z,94.57
2023-03-01T00:21:23.566Z,98.88
2023-03-01T00:28:25.187Z,95.30
2023-03-01T00:35:26.816Z,95.45
2023-03-01T00:42:28.412Z,97.35
2023-03-01T00:49:30.052Z,134.20
2023-03-01T00:56:32.181Z,159.65
2023-03-01T01:03:34.018Z,136.80
2023-03-01T01:10:35.900Z,152.15
2023-03-01T01:17:37.477Z,147.20
2023-03-01T01:24:39.049Z,156.07
2023-03-01T01:31:41.270Z,141.05
2023-03-01T01:38:43.382Z,136.40
2023-03-01T01:45:44.955Z,135.05
2023-03-01T01:52:47.352Z,133.23
2023-03-01T01:59:51.956Z,138.02
2023-03-01T02:07:00.470Z,149.45
2023-03-01T02:14:02.067Z,146.90
2023-03-01T02:21:12.980Z,134.13
2023-03-01T02:28:14.508Z,168.70
2023-03-01T02:35:16.535Z,164.93
2023-03-01T02:42:27.887Z,96.15
2023-03-01T02:49:31.754Z,98.05
2023-03-01T02:56:33.362Z,107.68
2023-03-01T03:03:35.247Z,107.03
2023-03-01T03:10:38.570Z,110.53
2023-03-01T03:17:40.808Z,109.15
2023-03-01T03:24:42.326Z,114.72
2023-03-01T03:31:43.879Z,115.03
2023-03-01T03:38:46.639Z,113.43
2023-03-01T03:45:49.604Z,114.60
2023-03-01T03:52:51.165Z,114.00
2023-03-01T03:59:52.792Z,116.72
2023-03-01T04:06:54.330Z,114.93
2023-03-01T04:13:58.863Z,115.40
2023-03-01T04:21:00.901Z,115.80
2023-03-01T04:28:02.444Z,122.10
2023-03-01T04:35:04.052Z,121.35
2023-03-01T04:42:05.646Z,119.05
2023-03-01T04:49:07.181Z,140.95
2023-03-01T04:56:08.884Z,144.68
2023-03-01T05:03:10.418Z,148.38
2023-03-01T05:10:11.975Z,200.60
2023-03-01T05:17:13.517Z,146.23
2023-03-01T05:24:15.075Z,139.38
2023-03-01T05:31:16.716Z,143.93
2023-03-01T05:38:18.437Z,145.95
2023-03-01T05:45:19.986Z,152.60
2023-03-01T05:52:21.620Z,157.55
2023-03-01T05:59:23.168Z,172.00
2023-03-01T06:06:25.049Z,115.43
2023-03-01T06:13:26.594Z,102.45
2023-03-01T06:20:29.133Z,95.05
2023-03-01T06:27:30.741Z,83.97
2023-03-01T06:34:33.075Z,101.03
2023-03-01T06:41:34.890Z,109.57
2023-03-01T06:48:36.451Z,120.30
2023-03-01T06:55:37.991Z,144.38
2023-03-01T07:02:39.547Z,91.30
2023-03-01T07:09:41.092Z,100.78
2023-03-01T07:16:42.605Z,109.55
2023-03-01T07:23:44.145Z,122.70
2023-03-01T07:30:45.741Z,132.48
2023-03-01T07:37:47.317Z,122.50
2023-03-01T07:44:48.878Z,116.97
2023-03-01T07:51:50.450Z,116.28
2023-03-01T07:58:51.963Z,95.97
2023-03-01T08:05:53.589Z,77.80
2023-03-01T08:12:55.145Z,75.30
2023-03-01T08:19:56.726Z,64.10
2023-03-01T08:26:58.326Z,58.58
2023-03-01T08:34:00.879Z,63.90
2023-03-01T08:41:03.343Z,73.28
2023-03-01T08:48:06.039Z,73.65
2023-03-01T08:55:08.353Z,83.65
2023-03-01T09:02:14.708Z,90.13
2023-03-01T09:09:17.433Z,88.15
2023-03-01T09:16:20.464Z,113.53
2023-03-01T09:23:22.309Z,125.60
2023-03-01T09:30:25.123Z,100.10
2023-03-01T09:37:27.480Z,107.25
2023-03-01T09:44:32.084Z,114.18
2023-03-01T09:51:35.219Z,141.13
2023-03-01T09:58:57.676Z,135.65
2023-03-01T10:06:33.910Z,175.35
2023-03-01T10:14:04.346Z,157.75
2023-03-01T10:21:24.215Z,148.73
2023-03-01T10:29:04.432Z,184.77
2023-03-01T10:36:06.491Z,201.05
2023-03-01T10:43:11.904Z,201.25
2023-03-01T10:50:21.656Z,151.15
2023-03-01T10:57:39.385Z,175.60
2023-03-01T11:04:58.203Z,156.93
2023-03-01T11:12:01.037Z,177.48
2023-03-01T11:19:11.445Z,181.68
2023-03-01T11:26:13.315Z,185.35
2023-03-01T11:33:19.939Z,138.88
2023-03-01T11:40:35.401Z,134.32
2023-03-01T11:47:53.632Z,164.02
2023-03-01T11:55:33.476Z,169.77
2023-03-01T12:03:01.302Z,247.30
2023-03-01T12:10:29.859Z,267.60
2023-03-01T12:18:00.466Z,261.33
2023-03-01T12:25:14.771Z,297.10
2023-03-01T12:32:36.411Z,249.50
2023-03-01T12:39:52.284Z,250.88
2023-03-01T12:47:06.280Z,280.58
2023-03-01T12:54:23.846Z,234.80
2023-03-01T13:01:50.187Z,274.90
2023-03-01T13:09:14.047Z,268.50
2023-03-01T13:16:31.379Z,219.40
2023-03-01T13:23:35.358Z,248.82
2023-03-01T13:30:37.856Z,244.48
2023-03-01T13:37:39.747Z,283.58
2023-03-01T13:44:44.373Z,274.20
2023-03-01T13:51:49.767Z,223.10
2023-03-01T13:59:01.972Z,234.18
2023-03-01T14:06:14.681Z,236.30
2023-03-01T14:13:55.232Z,197.77
2023-03-01T14:20:56.909Z,136.13
2023-03-01T14:28:02.893Z,134.32
2023-03-01T14:35:20.456Z,150.82
2023-03-01T14:42:23.699Z,170.93
2023-03-01T14:49:30.338Z,126.65
2023-03-01T14:56:43.946Z,161.50
2023-03-01T15:03:49.366Z,166.10
2023-03-01T15:11:02.180Z,194.18
2023-03-01T15:18:14.615Z,190.00
2023-03-01T15:25:19.938Z,155.90
2023-03-01T15:32:31.000Z,184.18
2023-03-01T15:39:39.648Z,143.27
2023-03-01T15:46:41.431Z,137.18
2023-03-01T15:53:54.003Z,134.02
2023-03-01T16:01:02.089Z,131.43
2023-03-01T16:08:04.209Z,128.85
2023-03-01T16:15:12.446Z,131.18
2023-03-01T16:22:14.125Z,133.15
2023-03-01T16:29:16.490Z,137.73
2023-03-01T16:36:19.163Z,142.73
2023-03-01T16:43:20.821Z,210.88
2023-03-01T16:50:22.743Z,76.53
2023-03-01T16:57:24.795Z,128.25
2023-03-01T17:04:26.474Z,141.57
2023-03-01T17:11:28.104Z,66.93
2023-03-01T17:18:29.680Z,69.47
2023-03-01T17:25:31.328Z,70.25
2023-03-01T17:32:33.094Z,69.82
2023-03-01T17:39:36.390Z,71.40
2023-03-01T17:46:38.119Z,81.88
2023-03-01T17:53:39.818Z,89.35
2023-03-01T18:00:41.531Z,88.25
2023-03-01T18:07:43.274Z,105.25
2023-03-01T18:14:44.901Z,10.15
2023-03-01T18:21:46.480Z,5.07
2023-03-01T18:28:50.625Z,4.63
2023-03-01T18:35:52.303Z,4.82
2023-03-01T18:42:53.866Z,5.00
2023-03-01T18:49:55.470Z,3.97
2023-03-01T18:56:57.111Z,4.55
2023-03-01T19:03:58.836Z,6.30
2023-03-01T19:11:02.108Z,5.97
2023-03-01T19:18:05.484Z,6.32
2023-03-01T19:25:07.589Z,25.20
2023-03-01T19:32:12.825Z,4.80
2023-03-01T19:39:14.521Z,10.85
2023-03-01T19:46:16.351Z,15.70
2023-03-01T19:53:18.397Z,6.03
2023-03-01T20:00:20.158Z,5.18
2023-03-01T20:07:21.809Z,4.85
2023-03-01T20:14:24.192Z,6.05
2023-03-01T20:21:27.069Z,29.13
2023-03-01T20:28:28.696Z,5.28
2023-03-01T20:35:32.853Z,5.00
2023-03-01T20:42:34.423Z,27.40
2023-03-01T20:49:36.365Z,7.03
2023-03-01T20:56:37.989Z,9.75
2023-03-01T21:03:39.573Z,6.28
2023-03-01T21:10:41.125Z,10.13
2023-03-01T21:17:42.681Z,13.50
2023-03-01T21:24:44.245Z,68.55
2023-03-01T21:31:46.026Z,72.82
2023-03-01T21:38:48.070Z,91.53
2023-03-01T21:45:49.721Z,42.85
2023-03-01T21:52:51.250Z,43.15
2023-03-01T21:59:52.800Z,44.95
2023-03-01T22:06:54.481Z,71.45
2023-03-01T22:13:56.144Z,45.33
2023-03-01T22:21:03.795Z,61.08
2023-03-01T22:28:05.409Z,64.43
2023-03-01T22:35:07.185Z,68.88
2023-03-01T22:42:09.709Z,78.63
2023-03-01T22:49:11.423Z,81.97
2023-03-01T22:56:17.711Z,81.30
2023-03-01T23:03:19.438Z,82.85
2023-03-01T23:10:21.153Z,59.78
2023-03-01T23:17:24.807Z,53.35
2023-03-01T23:24:31.139Z,57.67
2023-03-01T23:31:32.880Z,58.58
2023-03-01T23:38:34.441Z,55.00
2023-03-01T23:45:42.919Z,52.90
2023-03-01T23:52:44.480Z,48.58
2023-03-01T23:59:46.017Z,46.70
